Time;durP1;ratioP1;P1;durP2;ratioP2;P2;SDS_P1;SDS_P2;PMS_P1;PMS_P2;Temp;Humidity;BMP_temperature;BMP_pressure;BME280_temperature;BME280_humidity;BME280_pressure;Samples;Min_cycle;Max_cycle;Signal;HPM_P1;HPM_P2
2022/06/02 00:00:11;;;;;;;10.15;4.35;;;;;;;19.80;nan;-24367.91;5052012;28;20187;-57
2022/06/02 00:02:58;;;;;;;6.40;3.95;;;;;;;19.72;nan;-24365.81;5053035;28;20170;-56
2022/06/02 00:05:50;;;;;;;5.50;3.05;;;;;;;19.55;nan;-24361.09;5053443;28;20228;-57
2022/06/02 00:08:46;;;;;;;6.13;4.10;;;;;;;19.51;nan;-24359.84;5049397;28;20186;-57
2022/06/02 00:11:43;;;;;;;6.53;3.60;;;;;;;19.50;nan;-24359.56;5051744;28;20170;-56
2022/06/02 00:14:22;;;;;;;5.78;3.60;;;;;;;19.49;nan;-24359.28;5052395;28;20657;-57
2022/06/02 00:17:02;;;;;;;4.57;3.20;;;;;;;19.53;nan;-24360.38;5052770;28;20202;-56
2022/06/02 00:19:58;;;;;;;6.45;3.65;;;;;;;19.66;nan;-24364.00;5054952;28;20232;-56
2022/06/02 00:22:45;;;;;;;5.65;3.85;;;;;;;19.38;nan;-24356.50;5045787;28;20183;-57
2022/06/02 00:25:32;;;;;;;5.43;3.42;;;;;;;19.72;nan;-24365.69;5052332;28;20558;-57
2022/06/02 00:28:16;;;;;;;4.97;3.53;;;;;;;19.76;nan;-24366.94;5052291;28;20182;-57
2022/06/02 00:31:12;;;;;;;4.97;3.20;;;;;;;19.80;nan;-24367.91;5052384;28;20185;-57
2022/06/02 00:34:01;;;;;;;6.05;3.45;;;;;;;19.76;nan;-24366.94;5051967;28;20190;-55
2022/06/02 00:36:41;;;;;;;5.25;3.67;;;;;;;19.46;nan;-24358.44;5052093;28;20701;-56
2022/06/02 00:39:08;;;;;;;8.45;3.53;;;;;;;19.54;nan;-24360.66;5052417;28;20276;-56
2022/06/02 00:41:53;;;;;;;5.95;3.20;;;;;;;19.36;nan;-24355.94;5051586;28;20178;-56
2022/06/02 00:44:32;;;;;;;5.50;3.42;;;;;;;19.03;nan;-24346.75;5050648;28;20685;-56
2022/06/02 00:47:35;;;;;;;5.50;3.72;;;;;;;19.10;nan;-24348.69;5052722;28;20646;-57
2022/06/02 00:50:39;;;;;;;5.25;3.58;;;;;;;19.10;nan;-24348.56;5052665;28;20201;-56
2022/06/02 00:53:10;;;;;;;7.15;4.18;;;;;;;19.13;nan;-24349.41;5049891;28;20201;-56
2022/06/02 00:59:08;;;;;;;6.53;3.97;;;;;;;18.96;nan;-24344.81;5047065;28;20216;-56
2022/06/02 01:01:36;;;;;;;4.05;3.25;;;;;;;18.86;nan;-24342.03;5052372;28;20249;-56
2022/06/02 01:04:05;;;;;;;5.90;3.60;;;;;;;18.81;nan;-24340.63;5084664;28;20178;-56
2022/06/02 01:06:34;;;;;;;7.45;3.40;;;;;;;18.72;nan;-24338.25;5052047;28;20171;-56
2022/06/02 01:09:43;;;;;;;5.32;3.50;;;;;;;18.64;nan;-24335.91;5051789;28;20182;-56
2022/06/02 01:12:38;;;;;;;5.25;3.35;;;;;;;18.44;nan;-24330.59;5051469;28;20274;-55
2022/06/02 01:15:14;;;;;;;7.68;4.03;;;;;;;18.43;nan;-24330.31;5051937;28;20205;-55
2022/06/02 01:18:14;;;;;;;7.50;3.83;;;;;;;18.64;nan;-24335.91;5052386;28;20170;-56
2022/06/02 01:21:07;;;;;;;5.45;3.38;;;;;;;18.54;nan;-24333.38;5052488;28;20182;-55
2022/06/02 01:24:10;;;;;;;4.38;3.13;;;;;;;18.98;nan;-24345.38;5052146;28;20170;-56
2022/06/02 01:27:05;;;;;;;6.15;3.92;;;;;;;18.73;nan;-24338.41;5052206;28;20559;-55
2022/06/02 01:29:52;;;;;;;6.35;3.42;;;;;;;19.08;nan;-24348.00;5044055;28;20190;-56
2022/06/02 01:32:24;;;;;;;5.53;3.47;;;;;;;19.00;nan;-24345.91;5056062;28;20617;-56
2022/06/02 01:35:14;;;;;;;7.03;3.80;;;;;;;18.78;nan;-24339.94;5056850;28;20182;-55
2022/06/02 01:37:46;;;;;;;5.45;3.42;;;;;;;19.01;nan;-24346.06;5058008;28;20244;-56
2022/06/02 01:40:20;;;;;;;5.25;3.33;;;;;;;18.94;nan;-24344.38;5054225;28;20174;-56
2022/06/02 01:43:08;;;;;;;5.25;3.00;;;;;;;18.83;nan;-24341.31;5058926;28;20249;-56
2022/06/02 01:46:00;;;;;;;5.53;3.53;;;;;;;18.78;nan;-24339.78;5057971;28;20177;-56
2022/06/02 01:48:53;;;;;;;5.80;3.50;;;;;;;18.48;nan;-24331.72;5090314;28;20579;-56
2022/06/02 01:51:50;;;;;;;5.68;3.60;;;;;;;18.85;nan;-24341.75;5056117;28;20186;-56
2022/06/02 01:54:49;;;;;;;5.10;3.63;;;;;;;18.72;nan;-24338.25;5053323;28;20182;-56
2022/06/02 01:57:42;;;;;;;5.13;3.20;;;;;;;18.58;nan;-24334.38;5055260;28;20187;-56
2022/06/02 02:00:11;;;;;;;5.30;3.42;;;;;;;18.40;nan;-24329.47;5053995;28;20571;-56
2022/06/02 02:02:48;;;;;;;6.03;3.60;;;;;;;18.80;nan;-24340.34;5058244;28;20251;-57
2022/06/02 02:05:39;;;;;;;5.05;3.45;;;;;;;18.64;nan;-24336.03;5055880;28;20675;-57
2022/06/02 02:08:36;;;;;;;5.05;3.60;;;;;;;18.74;nan;-24338.69;5056231;28;20637;-56
2022/06/02 02:11:13;;;;;;;4.30;3.20;;;;;;;18.73;nan;-24338.53;5052839;28;20182;-57
2022/06/02 02:14:20;;;;;;;5.03;3.42;;;;;;;18.72;nan;-24338.13;5056157;28;20282;-56
2022/06/02 02:17:11;;;;;;;5.43;3.35;;;;;;;18.56;nan;-24333.66;5017275;28;20214;-56
2022/06/02 02:19:57;;;;;;;6.07;3.80;;;;;;;18.67;nan;-24336.72;5015538;28;20219;-56
2022/06/02 02:22:39;;;;;;;5.15;3.75;;;;;;;18.63;nan;-24335.75;5044681;28;20194;-56
2022/06/02 02:25:34;;;;;;;6.00;3.70;;;;;;;18.67;nan;-24336.72;5053039;28;20684;-57
2022/06/02 02:28:24;;;;;;;6.25;3.95;;;;;;;18.64;nan;-24336.03;5046638;28;20194;-62
2022/06/02 02:31:44;;;;;;;6.00;3.90;;;;;;;18.41;nan;-24329.63;5050118;28;20194;-57
2022/06/02 02:34:18;;;;;;;5.63;3.38;;;;;;;18.43;nan;-24330.31;5051709;28;20186;-57
2022/06/02 02:37:03;;;;;;;6.15;3.38;;;;;;;18.43;nan;-24330.31;5057097;28;20664;-56
2022/06/02 02:39:51;;;;;;;4.68;3.20;;;;;;;18.43;nan;-24330.31;5057726;28;20609;-56
2022/06/02 02:42:47;;;;;;;3.95;3.05;;;;;;;18.17;nan;-24323.06;5054682;28;20182;-57
2022/06/02 02:45:22;;;;;;;5.30;3.28;;;;;;;18.44;nan;-24330.47;5056282;28;20206;-57
2022/06/02 02:47:56;;;;;;;3.97;2.90;;;;;;;18.22;nan;-24324.47;5057975;28;20232;-57
2022/06/02 02:50:31;;;;;;;4.63;3.22;;;;;;;18.51;nan;-24332.41;5054068;28;20207;-56
2022/06/02 02:53:02;;;;;;;4.75;3.17;;;;;;;18.52;nan;-24332.81;5056182;28;20186;-56
2022/06/02 02:55:40;;;;;;;4.35;3.38;;;;;;;18.57;nan;-24333.94;5076114;28;20239;-55
2022/06/02 02:58:17;;;;;;;4.55;2.90;;;;;;;18.77;nan;-24339.66;5056099;28;20190;-56
2022/06/02 03:01:05;;;;;;;3.72;2.83;;;;;;;18.98;nan;-24345.50;5058201;28;20174;-57
2022/06/02 03:03:42;;;;;;;4.68;2.95;;;;;;;19.24;nan;-24352.59;5052883;28;20193;-56
2022/06/02 03:06:24;;;;;;;3.65;2.70;;;;;;;19.60;nan;-24362.47;5052213;28;20187;-56
2022/06/02 03:09:16;;;;;;;4.43;3.05;;;;;;;20.10;nan;-24376.09;5053418;28;20171;-57
2022/06/02 03:12:04;;;;;;;3.15;2.60;;;;;;;20.75;nan;-24393.88;5052241;28;20657;-56
2022/06/02 03:14:41;;;;;;;5.43;2.97;;;;;;;21.32;nan;-24409.69;5055492;28;20233;-56
2022/06/02 03:17:25;;;;;;;4.10;2.97;;;;;;;21.54;nan;-24415.78;5055974;28;20262;-57
2022/06/02 03:20:18;;;;;;;3.53;2.75;;;;;;;22.17;nan;-24432.97;5060649;28;20190;-56
2022/06/02 03:23:06;;;;;;;3.95;2.78;;;;;;;23.08;nan;-24457.72;5056573;28;20190;-57
2022/06/02 03:25:40;;;;;;;5.97;3.00;;;;;;;23.84;nan;-24478.44;5058242;28;20227;-57
2022/06/02 03:28:13;;;;;;;4.03;2.90;;;;;;;24.58;nan;-24498.84;5057490;28;20186;-57
2022/06/02 03:31:04;;;;;;;3.85;2.80;;;;;;;25.00;nan;-24510.13;5057648;28;20178;-58
2022/06/02 03:34:00;;;;;;;3.47;2.55;;;;;;;24.77;nan;-24503.94;5056716;28;20204;-57
2022/06/02 03:36:52;;;;;;;4.22;2.90;;;;;;;25.65;nan;-24527.88;5055880;28;20236;-57
2022/06/02 03:39:39;;;;;;;5.28;3.35;;;;;;;27.02;nan;-24565.13;5055491;28;20197;-57
2022/06/02 03:42:22;;;;;;;5.45;2.97;;;;;;;27.74;nan;-24584.59;5054639;28;20182;-57
2022/06/02 03:45:23;;;;;;;4.40;3.05;;;;;;;28.92;nan;-24616.59;5057782;28;20657;-57
2022/06/02 03:48:27;;;;;;;4.13;3.00;;;;;;;29.71;nan;-24637.91;5057474;28;20213;-60
2022/06/02 03:51:11;;;;;;;4.05;2.92;;;;;;;30.38;nan;-24655.91;5038330;28;20187;-58
2022/06/02 03:54:08;;;;;;;3.60;2.53;;;;;;;30.94;nan;-24670.88;5056362;28;20183;-57
2022/06/02 03:56:54;;;;;;;4.03;2.65;;;;;;;31.02;nan;-24673.22;5056204;28;20223;-58
2022/06/02 03:59:35;;;;;;;2.92;2.38;;;;;;;31.43;nan;-24684.09;5056560;28;20187;-59
2022/06/02 04:02:28;;;;;;;3.42;2.60;;;;;;;32.26;nan;-24706.50;5055863;28;20545;-59
2022/06/02 04:05:26;;;;;;;4.28;3.00;;;;;;;32.13;nan;-24702.84;5055022;28;20640;-59
2022/06/02 04:08:23;;;;;;;3.15;2.53;;;;;;;32.63;nan;-24716.28;5036399;28;20212;-58
2022/06/02 04:14:50;;;;;;;6.28;3.10;;;;;;;33.06;nan;-24727.94;5018885;28;20193;-58
2022/06/02 04:17:45;;;;;;;5.15;3.20;;;;;;;33.20;nan;-24731.72;5056606;28;20178;-58
2022/06/02 04:20:35;;;;;;;5.13;3.10;;;;;;;33.12;nan;-24729.44;5045677;28;20205;-59
2022/06/02 04:23:15;;;;;;;4.53;2.88;;;;;;;33.62;nan;-24742.84;5051269;28;20182;-57
2022/06/02 04:25:58;;;;;;;3.70;2.85;;;;;;;33.12;nan;-24729.56;5052428;28;20166;-58
2022/06/02 04:28:34;;;;;;;3.72;3.22;;;;;;;32.75;nan;-24719.66;5052234;28;20186;-56
2022/06/02 04:31:34;;;;;;;3.55;2.78;;;;;;;32.85;nan;-24722.25;5051058;28;20166;-56
2022/06/02 04:34:37;;;;;;;4.38;3.22;;;;;;;33.23;nan;-24732.41;5051603;28;20200;-57
2022/06/02 04:37:16;;;;;;;8.63;3.60;;;;;;;31.92;nan;-24697.28;5056804;28;20233;-57
2022/06/02 04:39:57;;;;;;;6.78;3.97;;;;;;;31.71;nan;-24691.69;5051795;28;20197;-56
2022/06/02 04:42:57;;;;;;;4.38;3.05;;;;;;;31.89;nan;-24696.47;5050580;28;20182;-57
2022/06/02 04:45:40;;;;;;;8.40;4.38;;;;;;;31.10;nan;-24675.25;5050691;28;20181;-57
2022/06/02 04:48:43;;;;;;;6.82;3.70;;;;;;;31.37;nan;-24682.44;5051594;28;20170;-57
2022/06/02 04:51:24;;;;;;;6.75;3.70;;;;;;;31.27;nan;-24679.88;5051609;28;20194;-57
2022/06/02 04:54:13;;;;;;;4.40;3.03;;;;;;;31.71;nan;-24691.69;5056852;28;20616;-58
2022/06/02 04:56:58;;;;;;;6.35;3.60;;;;;;;31.20;nan;-24677.84;5052119;28;20233;-58
2022/06/02 04:59:37;;;;;;;7.60;3.25;;;;;;;31.08;nan;-24674.84;5032129;28;20170;-57
2022/06/02 05:02:11;;;;;;;4.63;3.42;;;;;;;31.01;nan;-24672.94;5041201;28;20193;-57
2022/06/02 05:05:02;;;;;;;4.75;3.38;;;;;;;31.05;nan;-24674.03;5051562;28;20166;-58
2022/06/02 05:07:34;;;;;;;6.18;3.05;;;;;;;30.93;nan;-24670.75;5051511;28;20178;-57
2022/06/02 05:10:20;;;;;;;4.65;3.25;;;;;;;31.01;nan;-24672.94;5051969;28;20186;-57
2022/06/02 05:13:00;;;;;;;4.43;3.20;;;;;;;30.79;nan;-24666.94;5056046;28;20196;-57
2022/06/02 05:16:04;;;;;;;5.22;3.40;;;;;;;31.04;nan;-24673.75;5039624;28;20213;-58
2022/06/02 05:18:43;;;;;;;5.10;3.05;;;;;;;30.65;nan;-24663.13;5050703;28;20200;-57
2022/06/02 05:21:17;;;;;;;3.30;2.80;;;;;;;30.67;nan;-24663.81;5051147;28;20539;-57
2022/06/02 05:23:56;;;;;;;5.22;3.08;;;;;;;31.03;nan;-24673.34;5051356;28;20169;-56
2022/06/02 05:26:56;;;;;;;5.43;3.50;;;;;;;30.91;nan;-24670.22;5083704;28;20177;-58
2022/06/02 05:30:08;;;;;;;4.95;3.25;;;;;;;30.13;nan;-24649.22;5050237;28;20166;-57
2022/06/02 05:32:51;;;;;;;4.50;3.13;;;;;;;30.41;nan;-24656.72;5051691;28;20174;-57
2022/06/02 05:35:44;;;;;;;7.15;3.25;;;;;;;30.56;nan;-24660.69;5051732;28;20188;-57
2022/06/02 05:38:36;;;;;;;4.45;3.25;;;;;;;29.83;nan;-24641.03;5050986;28;20178;-57
2022/06/02 05:41:04;;;;;;;4.47;3.25;;;;;;;29.31;nan;-24627.00;5051187;28;20189;-57
2022/06/02 05:43:53;;;;;;;3.95;3.00;;;;;;;29.21;nan;-24624.38;5051362;28;20368;-58
2022/06/02 05:46:37;;;;;;;6.65;3.47;;;;;;;28.10;nan;-24594.31;5051084;28;20257;-57
2022/06/02 05:49:25;;;;;;;5.10;3.38;;;;;;;28.03;nan;-24592.38;5053612;28;20644;-57
2022/06/02 05:52:22;;;;;;;6.57;3.33;;;;;;;27.34;nan;-24573.63;5051268;28;20190;-57
2022/06/02 05:55:06;;;;;;;3.92;3.30;;;;;;;26.92;nan;-24562.38;5051426;28;20234;-56
2022/06/02 05:57:43;;;;;;;5.72;3.38;;;;;;;26.55;nan;-24552.34;5051288;28;20190;-57
2022/06/02 06:00:22;;;;;;;4.45;3.30;;;;;;;26.21;nan;-24543.00;5051200;28;20161;-57
2022/06/02 06:03:26;;;;;;;4.47;3.33;;;;;;;26.36;nan;-24547.28;5051111;28;20265;-57
2022/06/02 06:06:20;;;;;;;8.77;3.42;;;;;;;26.40;nan;-24548.09;5050751;28;20166;-57
2022/06/02 06:09:01;;;;;;;5.13;3.10;;;;;;;26.31;nan;-24545.91;5051202;28;20175;-57
2022/06/02 06:11:50;;;;;;;3.97;3.28;;;;;;;26.31;nan;-24545.91;4306729;28;20897;-59
2022/06/02 06:14:24;;;;;;;4.68;3.00;;;;;;;26.19;nan;-24542.59;4975384;28;20187;-57
2022/06/02 06:17:19;;;;;;;4.32;3.50;;;;;;;26.61;nan;-24553.84;5051377;28;20191;-58
2022/06/02 06:19:50;;;;;;;4.60;3.22;;;;;;;26.74;nan;-24557.56;5049021;28;20214;-58
2022/06/02 06:22:34;;;;;;;4.65;3.28;;;;;;;26.85;nan;-24560.44;5051181;28;20175;-59
2022/06/02 06:25:21;;;;;;;6.65;2.97;;;;;;;26.76;nan;-24557.97;5053767;28;20182;-58
2022/06/02 06:28:09;;;;;;;4.68;3.08;;;;;;;26.76;nan;-24558.13;5036105;28;20174;-58
2022/06/02 06:30:59;;;;;;;4.40;3.28;;;;;;;26.82;nan;-24559.75;5053058;28;20230;-58
2022/06/02 06:34:01;;;;;;;4.80;3.20;;;;;;;26.91;nan;-24562.09;5054759;28;20190;-57
2022/06/02 06:36:57;;;;;;;4.53;3.30;;;;;;;26.96;nan;-24563.47;5042381;28;20218;-58
2022/06/02 06:39:54;;;;;;;5.95;4.00;;;;;;;27.11;nan;-24567.44;5055118;28;20668;-57
2022/06/02 06:42:40;;;;;;;4.10;3.05;;;;;;;26.87;nan;-24560.88;5054735;28;20179;-57
2022/06/02 06:45:25;;;;;;;4.85;3.00;;;;;;;26.86;nan;-24560.72;5055120;28;20179;-57
2022/06/02 06:48:02;;;;;;;10.07;3.10;;;;;;;26.71;nan;-24556.59;5054703;28;20195;-57
2022/06/02 06:51:02;;;;;;;6.50;3.88;;;;;;;26.88;nan;-24561.13;5054299;28;20752;-57
2022/06/02 06:53:52;;;;;;;8.70;3.40;;;;;;;27.22;nan;-24570.47;5051918;28;20187;-58
2022/06/02 06:56:30;;;;;;;5.30;3.65;;;;;;;27.09;nan;-24567.03;5054310;28;20238;-57
2022/06/02 06:59:10;;;;;;;5.03;3.42;;;;;;;27.43;nan;-24576.06;5053165;28;20174;-58
2022/06/02 07:02:01;;;;;;;4.50;3.25;;;;;;;27.60;nan;-24580.75;5056617;28;20190;-58
2022/06/02 07:04:34;;;;;;;5.40;3.10;;;;;;;27.39;nan;-24574.97;5053164;28;20195;-58
2022/06/02 07:07:53;;;;;;;3.97;3.10;;;;;;;27.32;nan;-24573.06;5054012;28;20182;-58
2022/06/02 07:10:27;;;;;;;4.18;3.15;;;;;;;27.10;nan;-24567.31;5033010;28;20274;-58
2022/06/02 07:13:19;;;;;;;4.55;2.90;;;;;;;27.50;nan;-24578.00;5034496;28;20175;-57
2022/06/02 07:16:22;;;;;;;4.55;3.00;;;;;;;27.30;nan;-24572.50;5034072;28;20191;-57
2022/06/02 07:19:06;;;;;;;6.93;3.22;;;;;;;27.59;nan;-24580.47;5034145;28;20182;-57
2022/06/02 07:21:39;;;;;;;4.32;3.15;;;;;;;27.72;nan;-24584.03;5034374;28;20168;-58
2022/06/02 07:24:11;;;;;;;4.72;3.10;;;;;;;27.72;nan;-24584.03;5034441;28;20233;-58
2022/06/02 07:27:13;;;;;;;4.05;2.88;;;;;;;28.01;nan;-24591.97;5034439;28;20172;-57
2022/06/02 07:30:07;;;;;;;4.53;3.00;;;;;;;28.25;nan;-24598.41;5033930;28;20557;-57
2022/06/02 07:32:48;;;;;;;4.72;3.22;;;;;;;28.12;nan;-24594.84;5033588;28;20229;-57
2022/06/02 07:35:20;;;;;;;4.53;3.30;;;;;;;28.05;nan;-24593.06;5037000;28;20203;-57
2022/06/02 07:37:54;;;;;;;8.02;2.90;;;;;;;28.47;nan;-24604.28;5054690;28;20185;-58
2022/06/02 07:40:28;;;;;;;3.85;2.92;;;;;;;28.62;nan;-24608.25;5053568;28;20704;-58
2022/06/02 07:43:16;;;;;;;3.75;2.97;;;;;;;28.82;nan;-24613.72;5053238;28;20178;-59
2022/06/02 07:45:44;;;;;;;4.63;3.00;;;;;;;28.73;nan;-24611.41;5052256;28;20186;-58
2022/06/02 07:48:31;;;;;;;3.65;2.88;;;;;;;28.88;nan;-24615.50;5053439;28;20174;-58
2022/06/02 07:51:28;;;;;;;4.50;2.92;;;;;;;29.02;nan;-24619.19;5053450;28;20183;-58
2022/06/02 07:54:10;;;;;;;4.47;3.10;;;;;;;29.24;nan;-24625.19;5053481;28;20167;-58
2022/06/02 07:56:57;;;;;;;3.95;3.00;;;;;;;29.03;nan;-24619.34;5053748;28;20248;-58
2022/06/02 07:59:38;;;;;;;4.38;3.25;;;;;;;28.93;nan;-24616.75;5053300;28;20178;-58
2022/06/02 08:02:06;;;;;;;3.35;2.80;;;;;;;29.14;nan;-24622.34;5053106;28;20181;-58
2022/06/02 08:04:50;;;;;;;5.15;3.08;;;;;;;28.90;nan;-24615.91;5053569;28;20269;-58
2022/06/02 08:07:34;;;;;;;8.07;3.50;;;;;;;28.68;nan;-24609.91;5053276;28;20178;-58
2022/06/02 08:10:21;;;;;;;4.95;3.05;;;;;;;28.86;nan;-24614.97;5052688;28;20175;-58
2022/06/02 08:12:49;;;;;;;3.70;3.05;;;;;;;29.06;nan;-24620.28;5058231;28;20191;-58
2022/06/02 08:15:22;;;;;;;5.85;3.15;;;;;;;29.24;nan;-24625.06;5052817;28;20198;-57
2022/06/02 08:17:57;;;;;;;4.13;3.10;;;;;;;29.39;nan;-24629.16;5052884;28;20227;-57
2022/06/02 08:20:26;;;;;;;3.83;2.70;;;;;;;29.80;nan;-24640.22;5052854;28;20173;-57
2022/06/02 08:23:00;;;;;;;3.50;3.05;;;;;;;29.72;nan;-24638.19;5053346;28;20188;-58
2022/06/02 08:25:36;;;;;;;8.48;2.70;;;;;;;29.66;nan;-24636.53;5053091;28;20307;-58
2022/06/02 08:28:23;;;;;;;4.63;2.92;;;;;;;29.76;nan;-24639.28;5051381;28;20641;-57
2022/06/02 08:31:14;;;;;;;4.45;2.83;;;;;;;29.59;nan;-24634.63;5052207;28;20158;-58
2022/06/02 08:33:57;;;;;;;3.95;2.97;;;;;;;29.67;nan;-24636.81;5052274;28;20213;-58
2022/06/02 08:36:30;;;;;;;3.35;2.78;;;;;;;27.54;nan;-24579.09;5052057;28;20190;-57
2022/06/02 08:39:10;;;;;;;6.18;2.95;;;;;;;30.09;nan;-24648.13;5052247;28;20169;-57
2022/06/02 08:41:55;;;;;;;4.53;3.20;;;;;;;29.48;nan;-24631.50;5084267;28;20166;-57
2022/06/02 08:44:23;;;;;;;3.60;2.90;;;;;;;30.07;nan;-24647.44;5051709;28;20637;-57
2022/06/02 08:47:31;;;;;;;3.70;3.03;;;;;;;29.72;nan;-24638.03;5084100;28;20186;-58
2022/06/02 08:50:12;;;;;;;4.57;3.17;;;;;;;29.95;nan;-24644.31;5048051;28;20284;-58
2022/06/02 08:53:30;;;;;;;3.80;2.95;;;;;;;29.86;nan;-24641.84;5051315;28;20182;-57
2022/06/02 08:56:04;;;;;;;2.90;2.53;;;;;;;29.96;nan;-24644.47;5045922;28;20238;-58
2022/06/02 08:59:24;;;;;;;3.80;2.88;;;;;;;29.96;nan;-24644.59;5051551;28;20196;-57
2022/06/02 09:02:10;;;;;;;3.63;2.70;;;;;;;29.53;nan;-24633.00;5049221;28;20170;-57
2022/06/02 09:05:04;;;;;;;3.97;2.63;;;;;;;29.80;nan;-24640.34;5052949;28;20166;-57
2022/06/02 09:07:48;;;;;;;3.85;3.00;;;;;;;29.97;nan;-24644.72;5052015;28;20234;-58
2022/06/02 09:10:48;;;;;;;4.43;2.85;;;;;;;30.10;nan;-24648.41;5052013;28;20193;-60
2022/06/02 09:13:35;;;;;;;5.63;2.90;;;;;;;30.53;nan;-24659.84;5047610;28;20679;-57
2022/06/02 09:16:27;;;;;;;3.08;2.78;;;;;;;30.58;nan;-24661.22;5052570;28;20231;-57
2022/06/02 09:19:14;;;;;;;4.10;2.65;;;;;;;30.67;nan;-24663.66;5051600;28;20178;-57
2022/06/02 09:22:01;;;;;;;3.15;2.85;;;;;;;30.88;nan;-24669.25;5051810;28;20158;-57
2022/06/02 09:24:33;;;;;;;5.53;3.30;;;;;;;30.90;nan;-24669.78;5054357;28;20717;-57
2022/06/02 09:27:36;;;;;;;3.17;2.70;;;;;;;30.91;nan;-24670.22;5052389;28;20608;-58
2022/06/02 09:30:37;;;;;;;3.55;3.03;;;;;;;30.45;nan;-24657.81;5051182;28;20182;-57
2022/06/02 09:33:33;;;;;;;4.68;2.97;;;;;;;30.65;nan;-24663.13;5051055;28;20248;-57
2022/06/02 09:36:03;;;;;;;3.67;2.85;;;;;;;30.78;nan;-24666.66;5050151;28;20210;-57
2022/06/02 09:38:48;;;;;;;6.00;3.08;;;;;;;31.30;nan;-24680.69;5051280;28;20177;-58
2022/06/02 09:41:35;;;;;;;4.10;3.17;;;;;;;31.05;nan;-24673.88;5051306;28;20525;-57
2022/06/02 09:44:09;;;;;;;4.60;3.00;;;;;;;30.67;nan;-24663.66;5051292;28;20185;-57
2022/06/02 09:46:48;;;;;;;4.30;3.30;;;;;;;30.50;nan;-24659.19;5051810;28;20172;-57
2022/06/02 09:49:32;;;;;;;4.03;3.03;;;;;;;30.00;nan;-24645.53;5051880;28;20272;-58
2022/06/02 09:52:44;;;;;;;4.88;3.20;;;;;;;30.10;nan;-24648.28;5051472;28;20158;-58
2022/06/02 09:55:31;;;;;;;3.53;2.83;;;;;;;30.06;nan;-24647.19;5051200;28;20578;-58
2022/06/02 09:58:02;;;;;;;5.45;3.45;;;;;;;29.72;nan;-24638.19;4420019;28;21577;-58
2022/06/02 10:00:39;;;;;;;4.75;3.40;;;;;;;29.82;nan;-24640.91;4321356;28;20939;-58
2022/06/02 10:03:22;;;;;;;4.95;3.20;;;;;;;29.97;nan;-24644.72;4527789;28;20189;-57
2022/06/02 10:06:01;;;;;;;3.92;3.10;;;;;;;29.82;nan;-24640.78;5056607;28;20209;-57
2022/06/02 10:08:53;;;;;;;5.00;3.42;;;;;;;30.13;nan;-24649.09;5039459;28;20637;-57
2022/06/02 10:11:39;;;;;;;4.30;3.00;;;;;;;30.54;nan;-24660.25;5055759;28;20181;-57
2022/06/02 10:14:33;;;;;;;3.42;2.88;;;;;;;30.77;nan;-24666.25;5055479;28;20174;-57
2022/06/02 10:17:52;;;;;;;4.15;3.22;;;;;;;30.91;nan;-24670.06;5057417;28;20197;-57
2022/06/02 10:20:39;;;;;;;6.75;3.60;;;;;;;31.00;nan;-24672.66;4993690;28;20184;-58
2022/06/02 10:23:20;;;;;;;3.72;2.88;;;;;;;31.17;nan;-24677.00;5035166;28;20220;-57
2022/06/02 10:26:04;;;;;;;5.15;3.50;;;;;;;30.71;nan;-24664.91;5033465;28;20167;-56
2022/06/02 10:29:24;;;;;;;4.38;3.33;;;;;;;30.63;nan;-24662.72;5035034;28;20174;-57
2022/06/02 10:32:26;;;;;;;5.05;3.40;;;;;;;30.84;nan;-24668.16;5053322;28;20259;-57
2022/06/02 10:35:06;;;;;;;4.30;3.30;;;;;;;30.93;nan;-24670.63;5053067;28;20188;-57
2022/06/02 10:37:35;;;;;;;5.00;3.30;;;;;;;30.88;nan;-24669.38;5036263;28;20194;-57
2022/06/02 10:40:26;;;;;;;4.95;3.47;;;;;;;30.85;nan;-24668.56;5034507;28;20175;-57
2022/06/02 10:43:21;;;;;;;4.10;3.28;;;;;;;31.20;nan;-24677.84;5034553;28;20621;-57
2022/06/02 10:46:16;;;;;;;4.72;3.25;;;;;;;31.28;nan;-24680.13;5053956;28;20235;-58
2022/06/02 10:49:18;;;;;;;4.55;3.28;;;;;;;31.54;nan;-24687.22;5040141;28;20661;-57
2022/06/02 10:51:55;;;;;;;5.35;3.10;;;;;;;31.30;nan;-24680.69;5054713;28;20178;-57
2022/06/02 10:54:48;;;;;;;4.15;3.17;;;;;;;31.85;nan;-24695.50;5054496;28;20174;-57
2022/06/02 10:57:32;;;;;;;6.22;3.40;;;;;;;31.84;nan;-24695.09;5054642;28;20210;-57
2022/06/02 11:00:17;;;;;;;4.10;3.10;;;;;;;32.05;nan;-24700.78;5055109;28;20159;-57
2022/06/02 11:02:52;;;;;;;4.88;3.40;;;;;;;32.24;nan;-24705.97;5054412;28;20677;-57
2022/06/02 11:05:38;;;;;;;3.85;3.10;;;;;;;32.11;nan;-24702.44;5054726;28;20173;-56
2022/06/02 11:08:25;;;;;;;3.58;3.10;;;;;;;32.25;nan;-24706.22;5054536;28;20170;-57
2022/06/02 11:11:12;;;;;;;4.47;3.30;;;;;;;32.49;nan;-24712.47;5054673;28;20689;-58
2022/06/02 11:13:56;;;;;;;5.95;3.00;;;;;;;32.74;nan;-24719.41;5054998;28;20687;-57
2022/06/02 11:16:52;;;;;;;4.78;2.83;;;;;;;32.62;nan;-24716.00;5053696;28;20209;-58
2022/06/02 11:19:35;;;;;;;4.25;3.15;;;;;;;32.36;nan;-24709.22;5054204;28;20201;-57
2022/06/02 11:22:09;;;;;;;3.33;2.83;;;;;;;32.73;nan;-24719.00;5056587;28;20184;-58
2022/06/02 11:25:09;;;;;;;3.60;2.90;;;;;;;32.81;nan;-24721.28;5054051;28;20185;-56
2022/06/02 11:27:41;;;;;;;4.10;3.03;;;;;;;32.76;nan;-24719.81;5035241;28;20200;-56
2022/06/02 11:30:21;;;;;;;4.47;3.22;;;;;;;32.63;nan;-24716.41;5042838;28;20189;-57
2022/06/02 11:32:55;;;;;;;6.15;3.20;;;;;;;32.83;nan;-24721.69;5054659;28;20162;-58
2022/06/02 11:35:53;;;;;;;4.28;2.90;;;;;;;33.10;nan;-24729.03;5053852;28;20177;-57
2022/06/02 11:38:43;;;;;;;4.75;3.20;;;;;;;32.87;nan;-24722.78;5053075;28;20252;-57
2022/06/02 11:41:49;;;;;;;4.32;3.15;;;;;;;32.86;nan;-24722.50;5053817;28;20743;-57
2022/06/02 11:44:51;;;;;;;3.88;2.70;;;;;;;32.60;nan;-24715.59;5053505;28;20170;-58
2022/06/02 11:47:33;;;;;;;4.78;3.50;;;;;;;32.34;nan;-24708.69;5054066;28;20172;-57
2022/06/02 11:50:10;;;;;;;4.70;3.00;;;;;;;32.41;nan;-24710.44;5053783;28;20189;-57
2022/06/02 11:52:43;;;;;;;4.63;3.20;;;;;;;32.28;nan;-24707.03;5053603;28;20168;-57
2022/06/02 11:55:50;;;;;;;5.18;3.40;;;;;;;32.07;nan;-24701.22;5053307;28;20291;-57
2022/06/02 11:58:40;;;;;;;3.65;2.90;;;;;;;31.92;nan;-24697.28;5052797;28;20554;-57
2022/06/02 12:01:14;;;;;;;5.00;2.90;;;;;;;31.77;nan;-24693.31;5053770;28;20190;-57
2022/06/02 12:03:42;;;;;;;3.90;2.78;;;;;;;31.18;nan;-24677.28;5053135;28;20190;-57
2022/06/02 12:06:26;;;;;;;5.65;3.30;;;;;;;30.96;nan;-24671.56;5052786;28;20185;-57
2022/06/02 12:09:18;;;;;;;6.50;3.15;;;;;;;31.22;nan;-24678.50;5052958;28;20181;-57
2022/06/02 12:12:01;;;;;;;4.93;3.15;;;;;;;31.59;nan;-24688.44;5023970;28;20190;-58
2022/06/02 12:14:35;;;;;;;4.72;3.30;;;;;;;31.92;nan;-24697.41;5033375;28;20516;-58
2022/06/02 12:17:04;;;;;;;6.45;2.90;;;;;;;31.98;nan;-24698.91;5032849;28;20190;-58
2022/06/02 12:19:50;;;;;;;3.90;2.90;;;;;;;32.26;nan;-24706.50;5032693;28;20662;-58
2022/06/02 12:22:54;;;;;;;4.43;2.60;;;;;;;32.01;nan;-24699.72;5032763;28;20653;-57
2022/06/02 12:25:30;;;;;;;3.70;2.85;;;;;;;32.35;nan;-24708.81;5024519;28;20201;-57
2022/06/02 12:28:18;;;;;;;3.67;2.40;;;;;;;32.26;nan;-24706.50;5063783;28;20570;-56
2022/06/02 12:30:57;;;;;;;3.90;2.67;;;;;;;31.88;nan;-24696.19;5032220;28;20178;-58
2022/06/02 12:34:01;;;;;;;4.07;2.90;;;;;;;32.15;nan;-24703.38;5031907;28;20241;-56
2022/06/02 12:36:57;;;;;;;3.20;2.45;;;;;;;31.95;nan;-24698.09;5020604;28;20229;-57
2022/06/02 12:39:34;;;;;;;4.70;2.67;;;;;;;32.11;nan;-24702.44;5056355;28;20186;-58
2022/06/02 12:42:23;;;;;;;3.15;2.20;;;;;;;31.81;nan;-24694.41;5054276;28;20213;-58
2022/06/02 12:44:48;;;;;;;2.80;2.25;;;;;;;32.10;nan;-24702.16;5053126;28;20186;-57
2022/06/02 12:47:35;;;;;;;2.55;2.17;;;;;;;31.76;nan;-24693.06;5052174;28;20488;-57
2022/06/02 12:50:19;;;;;;;2.42;2.17;;;;;;;32.07;nan;-24701.34;5052732;28;20186;-57
2022/06/02 12:53:14;;;;;;;3.55;2.70;;;;;;;31.60;nan;-24688.56;5052466;28;20257;-57
2022/06/02 12:55:58;;;;;;;2.30;2.10;;;;;;;31.58;nan;-24688.16;5050368;28;20265;-58
2022/06/02 12:58:44;;;;;;;4.90;2.30;;;;;;;31.85;nan;-24695.38;5054766;28;20182;-58
2022/06/02 13:01:15;;;;;;;3.72;3.17;;;;;;;32.10;nan;-24702.03;5052587;28;20260;-58
2022/06/02 13:03:47;;;;;;;2.75;2.20;;;;;;;32.30;nan;-24707.59;5052529;28;20694;-58
2022/06/02 13:06:43;;;;;;;3.35;2.38;;;;;;;32.32;nan;-24708.13;5050926;28;20182;-59
2022/06/02 13:09:34;;;;;;;2.92;2.05;;;;;;;31.73;nan;-24692.09;5051935;28;20170;-57
2022/06/02 13:12:12;;;;;;;2.58;2.10;;;;;;;31.63;nan;-24689.41;5051815;28;20205;-56
2022/06/02 13:14:59;;;;;;;3.80;2.55;;;;;;;31.90;nan;-24696.72;5053858;28;20220;-57
2022/06/02 13:17:40;;;;;;;3.70;2.50;;;;;;;31.87;nan;-24695.91;5036131;28;20206;-57